AirNav   Air Wisconsin pilot careers
 
 577 users online  

KSLI Los Alamitos Army Airfield
Los Alamitos, California, USA

GOING TO LOS ALAMITOS?


FAA INFORMATION EFFECTIVE 04 JANUARY 2018

Location

FAA Identifier: SLI
Lat/Long: 33-47-24.1080N / 118-03-05.1120W
33-47.401800N / 118-03.085200W
33.7900300 / -118.0514200
(estimated)
Elevation: 35.5 ft. / 10.8 m (surveyed)
Variation: 12E (2020)
From city: 1 mile SE of LOS ALAMITOS, CA
Time zone: UTC -8 (UTC -7 during Daylight Saving Time)
Zip code: 90720

Airport Operations

Airport use: Private use. Permission required prior to landing
Activation date: 04/1944
Control tower: yes
ARTCC: LOS ANGELES CENTER
FSS: HAWTHORNE FLIGHT SERVICE STATION
NOTAMs facility: SLI (NOTAM-D service available)
Attendance: TUE-THU 1400-0500Z++, ALL FRI 1400-0200Z++, ALL SAT-SUN 1530-2300Z++, ALL MON 1400-0200Z++
CLSD HOL. RSTD: PPR CTC AFLD OPS DSN 972-2571, C562-795-2571; HTTP://WWW.CALGUARD.CA.GOV/AA-LOSAI.
Segmented circle: no
Lights: SS-SR
Beacon: white-white-green (lighted military airport)
Operates sunset to sunrise.

Airport Communications

ATIS: 118.875 379.975
LOS ALAMITOS GROUND: 126.95 257.95 [1500-0500Z++ TUE-THU, 1600-0000Z++ FRI-MON; CLSD HOL]
LOS ALAMITOS TOWER: 123.85 251.15 [1500-0500Z++ TUE-THU, 1600-0000Z++ FRI-MON; CLSD HOL]
SOCAL APPROACH: 125.35
SOCAL DEPARTURE: 125.35
AFLD OPS ADVSY SVC: 126.2 237.2
ARNG AASF: 233.8 41.5
EMERG: 243.0
HAWWC SID: 124.65
RDR: 124.75 127.95 230.8 231.0 234.1
REDHL SID: 124.65
USAR OPS: 139.05 230.9
WX ASOS at LGB (5 nm W): PHONE 562-424-0572
WX ASOS at FUL (6 nm NE): PHONE 714-870-1372
WX AWOS-3PT at CPM (11 nm NW): 127.150 (310-631-4958)
WX ASOS at SNA (11 nm SE): PHONE 714-424-0590
WX ASOS at HHR (16 nm NW): PHONE 310-973-8930
WX AWOS-3PT at EMT (18 nm N): 118.75 ((626) 444-1107)
WX ASOS at LAX (20 nm NW): PHONE 310-568-1486
  • FOR CLNC DEL WHEN ATCT CLSD CALL SOCAL APCH (800) 448-3724.

Nearby radio navigation aids

VOR radial/distance  VOR name  Freq  Var
SLI at fieldSEAL BEACH VORTAC115.7015E
ELBr279/17.4EL TORO VOR/DME117.2014E
LAXr099/20.8LOS ANGELES VORTAC113.6015E
POMr202/21.7POMONA VORTAC110.4015E
SMOr108/24.1SANTA MONICA VOR/DME110.8015E
PDZr238/27.1PARADISE VORTAC112.2015E
SXCr021/31.0SANTA CATALINA VORTAC111.4015E
RALr238/(31.6)RIVERSIDE VOR112.4014E
VNYr125/34.0VAN NUYS VOR/DME113.1015E

 
NDB name  Hdg/Dist  Freq  Var  ID
BECCA019/2.423314ELG .-.. --.
EL MONTE168/17.935915EEMT . -- -

Airport Services

Fuel available: A1+ JET-B+
Oil available: AFLD OPS ADVSY 126.2/237.2 WHEN LOS ALAMITOS TWR CLSD.

Runway Information

Runway 4R/22L

Dimensions: 7999 x 200 ft. / 2438 x 61 m
Surface: asphalt/concrete
Weight bearing capacity: 
PCN 36 /R/C/W/T
Runway edge lights: high intensity
HIRL ELEV 1' AND LCTD 5' FR EDGE OF RWY.
RUNWAY 4R  RUNWAY 22L
Latitude: 33-47.026767N33-47.783300N
Longitude: 118-03.613500W118-02.319133W
Elevation: 21.2 ft.35.5 ft.
Traffic pattern: leftleft
Visual slope indicator: 4-light PAPI on left (3.00 degrees glide path)
Approach lights: SALSF
Runway end identifier lights: nono
Centerline lights: yesyes
Touchdown point: yes, no lightsyes, no lights

Runway 4L/22R

Dimensions: 5901 x 150 ft. / 1799 x 46 m
Surface: PEM
Weight bearing capacity: 
PCN 36 /F/C/W/T
Runway edge lights: medium intensity
RUNWAY 4L  RUNWAY 22R
Latitude: 33-47.118333N33-47.676383N
Longitude: 118-03.723767W118-02.768750W
Elevation: 20.0 ft.26.9 ft.
Traffic pattern: leftleft
Touchdown point: yes, no lightsyes, no lights

Airport Ownership and Management from official FAA records

Ownership: U.S. Army
Owner: US ARMY
AASF, CAARNG, 4612 DOOLITTLE AVE
LOS ALAMITOS, CA 90720
Phone 562-795-2571
Manager: BASE OPS
LOS ALAMITOS, CA 90720
Phone 562-795-2571

Additional Remarks

RWY-LGTS: RWY 22L - SF.
MISC - WINDS ARE ACCURATE TO WITHIN PLUS OR MINUS 4 KNOTS.
MISC: TO EXCEED WT BRG CAP CTC AFLD OPS. SEE FLIP AP/1 RTE AND AREA RSTD AND SUPPLEMENT ARPT RMK.
ARNG AASF OPS- OPR 1530-2330Z++ MON-FRI; EXC HOL. DSN 972-2006, C562-795-2006. HTTP://WWW.CALGUARD.CA.GOV/AASF1.
RSTD: FOR SPECIAL AFTER HRS LNDG AND AFLD LIGHTING REQUESTS FOR ACFT WEIGHING UNDER 14,500 LBS, CALL AFLD OPS AT 562-795-2571.
RWY-17/35 CLSD (2500X150 ASP).
JASU - 4(E3) 2(AGPU) 2(AM32A-60B-WO DC PWR).
FUEL - J8
NS ABTMT - PRO IN EFF. ALL DEP RQR BRIEFINGS.

Instrument Procedures

NOTE: All procedures below are presented as PDF files. If you need a reader for these files, you should download the free Adobe Reader.

NOT FOR NAVIGATION. Please procure official charts for flight.
FAA instrument procedures published for use between 4 January 2018 at 0901Z and 1 February 2018 at 0900Z.

 
STARs - Standard Terminal Arrivals
KAYOH SEVEN   download (303KB)
 
IAPs - Instrument Approach Procedures
RNAV (GPS) RWY 22L **CHANGED**   download (113KB)
VOR OR TACAN RWY 22L   download (139KB)
NDB RWY 22L   download (119KB)
Radar Approach Procedures available   download (47KB)
 
Departure Procedures
HAWWC TWO (RNAV)   download (173KB)
REDHL TWO (RNAV)   download (225KB)
NOTE: Special Take-Off Minimums/Departure Procedures apply   download (215KB)

Other nearby airports with instrument procedures:

KLGB - Long Beach Airport (Daugherty Field) (5 nm W)
KFUL - Fullerton Municipal Airport (6 nm NE)
KSNA - John Wayne-Orange County Airport (11 nm SE)
KTOA - Zamperini Field Airport (14 nm W)
KHHR - Jack Northrop Field/Hawthorne Municipal Airport (16 nm NW)
KEMT - San Gabriel Valley Airport (18 nm N)
KLAX - Los Angeles International Airport (20 nm NW)
 
Loc | Ops | Rwys | IFR | FBO | Links
Com | Nav | Svcs | Stats | Notes

San Bernardino International Airport Authority
 
Area around KSLI (Los Alamitos Army Airfield)
 
Road maps at: MapQuest Bing Google
 
Aerial photo
WARNING: Photo may not be current or correct
Aerial photo of KSLI (Los Alamitos Army Airfield)
Photo courtesy of FocalFlight.com
Photo taken 01-Nov-2015
looking north.

Do you have a better or more recent aerial photo of Los Alamitos Army Airfield that you would like to share? If so, please send us your photo.

 
Sectional chart

 
Airport diagram
Diagram of KSLI (Los Alamitos Army Airfield)
Download PDF
of official airport diagram from the FAA

 
Airport distance calculator
Flying to Los Alamitos Army Airfield? Find the distance to fly.

From to KSLI

Sunrise and sunset
Times for 17-Jan-2018
 Local
(UTC-8)
 Zulu
(UTC)
Morning civil twilight06:3114:31
Sunrise06:5814:58
Sunset17:0701:07
Evening civil twilight17:3401:34

Current date and time
Zulu (UTC)  17-Jan-2018 12:38:54
Local (UTC-8)  17-Jan-2018 04:38:54
 
METAR
KSLI 
2nm SE 
171158Z AUTO 00000KT 6SM BR CLR 10/10 A3010 RMK AO2 SLP196 T01030103 10137 20097 57006
KLGB 
5nm W 
171153Z AUTO 00000KT 7SM CLR 13/11 A3011 RMK AO2 SLP195 T01280111 10161 20122 58006
KFUL 
6nm NE 
171153Z AUTO 00000KT 5SM BR CLR 11/09 A3010 RMK AO2 SLP192 T01060094 10144 20106 58006
KSNA 
12nm SE 
171153Z AUTO 00000KT 5SM BR CLR 12/11 A3011 RMK AO2 SLP196 T01170106 10156 20117 58004
KTOA 
13nm W 
170347Z 29008KT 10SM BKN150 OVC200 16/12 A3011 RMK LAST
KHHR 
16nm NW 
171153Z AUTO 00000KT 5SM BR CLR 13/12 A3012 RMK AO2 SLP198 T01280117 10156 20122 58006
KEMT 
17nm N 
170345Z 22004KT 8SM HZ CLR 17/09 A3013
KCQT 
18nm NW 
171147Z AUTO 00000KT 7SM CLR 12/11 A3011 RMK AO2 SLP195 T01220106 10150 20122 58005
KLAX 
19nm NW 
171219Z 00000KT 4SM R25L/2000VP6000FT BCFG BR FEW000 FEW004 SCT220 13/13 A3011 RMK AO2 VIS SE-SW 3/4 FG FEW000 FG BANK SE-SW T01330133 $
TAF
KSLI 
2nm SE 
171134Z 1711/1811 VRB06KT 4800 BR BKN200 QNH3011INS TEMPO 1711/1713 3200 BR BECMG 1712/1713 VRB06KT 4800 BR BKN200 QNH3012INS BECMG 1716/1717 VRB06KT 9999 NSW FEW250 QNH3017INS BECMG 1804/1805 VRB04KT 4800 BR FEW250 QNH3018INS TX23/1721Z TN08/1714Z
KLGB 
5nm W 
171126Z 1712/1812 VRB03KT P6SM SCT200 FM171900 17007KT P6SM SCT200 FM180000 28008KT P6SM SCT200 FM180400 VRB03KT P6SM SCT200
KSNA 
12nm SE 
171122Z 1712/1812 VRB04KT 5SM BR SCT250 FM171600 VRB04KT P6SM SCT250 FM172000 22007KT P6SM SCT250 FM180200 VRB04KT P6SM SCT250 TEMPO 1808/1812 3SM BR BKN004
KLAX 
19nm NW 
171126Z 1712/1818 VRB03KT 1SM BR SCT001 TEMPO 1712/1714 1/2SM FG BKN001 FM171400 VRB03KT 3SM BR SCT005 FM171700 26006KT P6SM SCT010 SCT200 FM172000 26010KT P6SM SCT200 FM180300 VRB03KT P6SM SCT200
NOTAMs
Click for the latest NOTAMs
NOTAMs are issued by the DoD/FAA and will open in a separate window not controlled by AirNav.

 

 
 

Would you like to see your business listed on this page?

 If your business provides an interesting product or service to pilots, flight crews, aircraft, or users of the Los Alamitos Army Airfield, you should consider listing it here.  To start the listing process, click on the button below
 
Add a business
 

Other Pages about Los Alamitos Army Airfield

www.aircav.com/sli.html
 
Update a link
 
Copyright © AirNav, LLC. All rights reserved. Privacy Policy  Contact